Time;durP1;ratioP1;P1;durP2;ratioP2;P2;SDS_P1;SDS_P2;PMS_P1;PMS_P2;Temp;Humidity;BMP_temperature;BMP_pressure;BME280_temperature;BME280_humidity;BME280_pressure;Samples;Min_cycle;Max_cycle;Signal;HPM_P1;HPM_P2
2022/04/02 00:01:39;;;;;;;3.40;2.27;;;16.00;63.30;;;;;;5251906;28;20055;-31
2022/04/02 00:04:11;;;;;;;4.10;2.25;;;16.00;60.20;;;;;;5269712;28;20404;-31
2022/04/02 00:06:42;;;;;;;2.87;2.47;;;16.00;63.50;;;;;;5269759;28;20048;-31
2022/04/02 00:09:13;;;;;;;3.10;2.03;;;16.00;66.10;;;;;;5252255;28;20418;-43
2022/04/02 00:11:45;;;;;;;3.30;2.30;;;16.00;61.80;;;;;;5269997;28;20135;-32
2022/04/02 00:14:17;;;;;;;3.75;2.28;;;16.00;67.10;;;;;;5270107;28;20052;-31
2022/04/02 00:16:48;;;;;;;3.07;2.00;;;15.90;61.30;;;;;;5235397;28;20083;-33
2022/04/02 00:19:20;;;;;;;3.60;2.40;;;15.90;64.30;;;;;;5269402;28;20068;-37
2022/04/02 00:21:51;;;;;;;3.90;2.57;;;15.90;62.50;;;;;;5269092;28;20039;-34
2022/04/02 00:24:22;;;;;;;3.90;2.27;;;15.90;63.90;;;;;;5251590;28;20094;-37
2022/04/02 00:26:53;;;;;;;3.67;2.37;;;15.90;62.80;;;;;;5269635;28;20040;-35
2022/04/02 00:29:24;;;;;;;3.43;2.20;;;15.90;63.90;;;;;;5250218;28;20078;-31
2022/04/02 00:31:55;;;;;;;4.17;2.50;;;15.90;61.70;;;;;;5269039;28;20040;-37
2022/04/02 00:34:26;;;;;;;4.10;2.30;;;15.90;62.30;;;;;;5269835;28;20127;-32
2022/04/02 00:36:57;;;;;;;3.03;2.00;;;15.90;61.70;;;;;;5269418;28;20111;-32
2022/04/02 00:39:30;;;;;;;3.67;2.17;;;15.90;61.90;;;;;;5269277;28;20044;-36
2022/04/02 00:42:01;;;;;;;5.00;2.67;;;15.90;65.40;;;;;;5269474;28;20044;-44
2022/04/02 00:44:32;;;;;;;3.33;2.30;;;15.90;62.20;;;;;;5269192;28;20063;-35
2022/04/02 00:47:03;;;;;;;3.43;2.23;;;15.90;65.30;;;;;;5269477;28;20044;-41
2022/04/02 00:49:34;;;;;;;3.20;2.20;;;15.90;62.70;;;;;;5269441;28;20413;-33
2022/04/02 00:52:05;;;;;;;3.57;2.13;;;15.90;65.10;;;;;;5269054;28;20097;-33
2022/04/02 00:54:36;;;;;;;3.03;2.27;;;15.90;65.50;;;;;;5251353;28;20052;-31
2022/04/02 00:57:07;;;;;;;3.10;2.20;;;15.90;67.40;;;;;;5234899;28;20043;-40
2022/04/02 00:59:38;;;;;;;5.30;2.40;;;15.90;64.20;;;;;;5250471;28;20393;-30
2022/04/02 01:02:09;;;;;;;3.27;2.13;;;15.90;67.40;;;;;;5269152;28;20055;-35
2022/04/02 01:04:41;;;;;;;3.40;2.13;;;15.90;64.90;;;;;;5269278;28;20470;-41
2022/04/02 01:07:11;;;;;;;3.37;2.47;;;15.90;65.80;;;;;;5268965;28;20051;-37
2022/04/02 01:09:43;;;;;;;2.83;2.00;;;15.90;70.10;;;;;;5269305;28;20478;-30
2022/04/02 01:12:14;;;;;;;4.13;2.20;;;15.90;64.50;;;;;;5269079;28;20052;-31
2022/04/02 01:14:45;;;;;;;3.73;2.23;;;15.90;64.30;;;;;;5269373;28;20044;-32
2022/04/02 01:17:16;;;;;;;3.93;2.63;;;15.90;67.80;;;;;;5269748;28;20048;-32
2022/04/02 01:19:47;;;;;;;3.13;2.13;;;15.90;68.90;;;;;;5269081;28;20117;-30
2022/04/02 01:22:18;;;;;;;3.30;2.50;;;15.90;65.30;;;;;;5268849;28;20044;-30
2022/04/02 01:24:49;;;;;;;3.83;2.40;;;15.80;66.50;;;;;;5251008;28;20040;-38
2022/04/02 01:27:20;;;;;;;3.47;2.10;;;15.80;67.70;;;;;;5268876;28;20413;-37
2022/04/02 01:29:51;;;;;;;3.27;2.17;;;15.80;65.10;;;;;;5250699;28;20083;-33
2022/04/02 01:32:22;;;;;;;3.27;2.43;;;15.80;65.60;;;;;;5268993;28;20101;-32
2022/04/02 01:34:53;;;;;;;3.60;2.50;;;15.80;65.70;;;;;;5249924;28;20109;-40
2022/04/02 01:37:24;;;;;;;3.47;2.20;;;15.80;66.50;;;;;;5269324;28;20047;-33
2022/04/02 01:39:55;;;;;;;3.23;2.47;;;15.80;67.20;;;;;;5268698;28;20063;-38
2022/04/02 01:42:26;;;;;;;3.47;2.37;;;15.80;64.40;;;;;;5268767;28;20082;-38
2022/04/02 01:44:57;;;;;;;3.20;2.20;;;15.80;70.40;;;;;;5268941;28;20558;-38
2022/04/02 01:47:29;;;;;;;3.70;2.40;;;15.80;65.30;;;;;;5268620;28;20048;-33
2022/04/02 01:50:00;;;;;;;2.97;1.93;;;15.80;65.00;;;;;;5268848;28;20087;-35
2022/04/02 01:52:31;;;;;;;3.40;2.47;;;15.80;66.80;;;;;;5271146;28;20493;-41
2022/04/02 01:55:02;;;;;;;2.80;1.90;;;15.80;66.00;;;;;;5272568;28;20425;-39
2022/04/02 01:57:33;;;;;;;3.80;2.10;;;15.80;64.80;;;;;;5272534;28;20060;-33
2022/04/02 02:00:05;;;;;;;4.07;2.63;;;15.80;65.80;;;;;;5272368;28;20040;-38
2022/04/02 02:02:36;;;;;;;3.23;2.27;;;15.80;69.00;;;;;;5272368;28;20055;-35
2022/04/02 02:05:07;;;;;;;3.67;2.20;;;15.80;65.00;;;;;;5271996;28;20123;-30
2022/04/02 02:07:38;;;;;;;3.03;2.27;;;15.80;65.30;;;;;;5272257;28;20047;-34
2022/04/02 02:10:10;;;;;;;3.60;2.30;;;15.80;64.00;;;;;;5272310;28;20174;-34
2022/04/02 02:12:40;;;;;;;2.73;1.83;;;15.80;71.70;;;;;;5272131;28;20121;-33
2022/04/02 02:15:16;;;;;;;3.33;2.13;;;15.80;64.70;;;;;;5272041;28;20441;-39
2022/04/02 02:17:47;;;;;;;2.63;1.83;;;15.80;63.00;;;;;;5274487;28;20116;-38
2022/04/02 02:20:19;;;;;;;3.17;2.00;;;15.70;65.20;;;;;;5253392;28;20040;-37
2022/04/02 02:22:50;;;;;;;2.17;1.60;;;15.80;59.40;;;;;;5271813;28;20056;-32
2022/04/02 02:25:21;;;;;;;2.47;1.63;;;15.70;52.50;;;;;;5271123;28;20500;-30
2022/04/02 02:27:52;;;;;;;2.83;2.07;;;15.70;52.10;;;;;;5271053;28;20040;-38
2022/04/02 02:30:23;;;;;;;2.57;1.80;;;15.70;51.90;;;;;;5271825;28;20048;-31
2022/04/02 02:35:49;;;;;;;3.40;1.80;;;15.70;51.80;;;;;;5271589;28;20044;-35
2022/04/02 02:35:51;;;;;;;2.80;1.70;;;15.70;51.60;;;;;;5272192;28;20504;-31
2022/04/02 02:38:22;;;;;;;2.60;1.63;;;15.70;51.50;;;;;;5271333;28;20139;-35
2022/04/02 02:40:53;;;;;;;2.73;2.00;;;15.70;51.40;;;;;;5271042;28;20051;-31
2022/04/02 02:43:24;;;;;;;2.60;1.70;;;15.70;51.20;;;;;;5255678;28;20074;-36
2022/04/02 02:45:55;;;;;;;2.40;1.60;;;15.70;51.20;;;;;;5271498;28;20126;-40
2022/04/02 02:48:27;;;;;;;3.70;2.13;;;15.70;51.60;;;;;;5271115;28;20504;-32
2022/04/02 02:50:58;;;;;;;3.97;2.40;;;15.70;51.10;;;;;;5235963;28;20136;-34
2022/04/02 02:53:29;;;;;;;3.00;2.00;;;15.70;51.00;;;;;;5271113;28;20064;-36
2022/04/02 02:56:00;;;;;;;3.53;2.37;;;15.80;50.50;;;;;;5270755;28;20044;-44
2022/04/02 02:58:31;;;;;;;4.13;2.87;;;15.80;50.50;;;;;;5271044;28;20048;-33
2022/04/02 03:01:02;;;;;;;4.17;2.50;;;15.80;50.60;;;;;;5253232;28;20044;-34
2022/04/02 03:03:34;;;;;;;3.73;1.90;;;15.80;50.70;;;;;;5253257;28;20036;-30
2022/04/02 03:06:05;;;;;;;4.37;2.00;;;15.80;50.60;;;;;;5271112;28;20072;-39
2022/04/02 03:08:36;;;;;;;2.93;1.70;;;15.90;50.30;;;;;;5271103;28;20129;-33
2022/04/02 03:11:07;;;;;;;3.20;1.70;;;15.90;50.60;;;;;;5271149;28;20181;-33
2022/04/02 03:13:38;;;;;;;2.47;1.53;;;15.90;50.70;;;;;;5271000;28;20122;-32
2022/04/02 03:16:09;;;;;;;2.17;1.40;;;15.90;50.60;;;;;;5271057;28;20198;-35
2022/04/02 03:18:40;;;;;;;1.90;1.30;;;15.90;50.50;;;;;;5270880;28;20048;-33
2022/04/02 03:21:11;;;;;;;2.10;1.20;;;15.90;50.50;;;;;;5270698;28;20044;-30
2022/04/02 03:23:42;;;;;;;3.87;1.63;;;16.00;50.80;;;;;;5270687;28;20051;-35
2022/04/02 03:26:13;;;;;;;2.30;1.43;;;15.90;50.90;;;;;;5270946;28;20076;-33
2022/04/02 03:28:46;;;;;;;2.03;1.30;;;15.90;51.00;;;;;;5270605;28;20115;-31
2022/04/02 03:31:17;;;;;;;2.08;1.30;;;15.90;50.90;;;;;;5270272;28;20078;-31
2022/04/02 03:33:48;;;;;;;2.17;1.47;;;15.90;51.10;;;;;;5238268;28;20072;-40
2022/04/02 03:36:19;;;;;;;1.97;1.13;;;15.90;50.80;;;;;;5279939;28;20074;-34
2022/04/02 03:38:50;;;;;;;2.00;1.30;;;15.90;50.70;;;;;;5279487;28;20427;-31
2022/04/02 03:41:23;;;;;;;2.33;1.20;;;16.00;50.80;;;;;;5279533;28;20062;-31
2022/04/02 03:43:56;;;;;;;2.00;1.07;;;16.00;51.10;;;;;;5270480;28;20474;-34
2022/04/02 03:49:17;;;;;;;2.57;1.10;;;16.00;51.40;;;;;;5270226;28;20478;-37
2022/04/02 03:51:48;;;;;;;1.80;1.23;;;16.00;51.30;;;;;;5269980;28;20536;-35
2022/04/02 03:54:19;;;;;;;1.73;0.90;;;16.00;51.30;;;;;;5270331;28;20119;-31
2022/04/02 03:56:50;;;;;;;2.00;1.47;;;16.00;51.40;;;;;;5270426;28;20040;-31
2022/04/02 03:59:21;;;;;;;2.20;1.37;;;16.00;51.50;;;;;;5251542;28;20048;-34
2022/04/02 04:01:52;;;;;;;2.33;1.47;;;16.00;51.50;;;;;;5270177;28;20082;-37
2022/04/02 04:04:24;;;;;;;1.43;1.03;;;16.00;51.40;;;;;;5269012;28;20072;-40
2022/04/02 04:06:56;;;;;;;2.20;1.37;;;16.00;51.50;;;;;;5269837;28;20040;-40
2022/04/02 04:09:27;;;;;;;1.67;0.93;;;16.00;51.60;;;;;;5269075;28;20044;-37
2022/04/02 04:11:58;;;;;;;1.60;1.00;;;16.00;51.60;;;;;;5269843;28;20036;-32
2022/04/02 04:14:29;;;;;;;2.57;1.50;;;16.00;51.60;;;;;;5269161;28;20044;-31
2022/04/02 04:17:01;;;;;;;2.00;1.20;;;16.00;51.70;;;;;;5270019;28;20071;-36
2022/04/02 04:19:32;;;;;;;1.27;1.00;;;16.00;51.80;;;;;;5269591;28;20453;-33
2022/04/02 04:22:06;;;;;;;1.47;1.10;;;16.00;51.80;;;;;;5278617;28;20091;-30
2022/04/02 04:24:37;;;;;;;1.30;0.83;;;16.00;51.70;;;;;;5286141;28;20040;-31
2022/04/02 04:27:08;;;;;;;2.23;1.00;;;16.00;51.90;;;;;;5290059;28;20051;-36
2022/04/02 04:29:39;;;;;;;1.97;1.53;;;16.10;52.00;;;;;;5289399;28;20055;-32
2022/04/02 04:32:10;;;;;;;1.97;1.20;;;16.10;52.00;;;;;;5290708;28;20075;-30
2022/04/02 04:34:41;;;;;;;1.60;1.13;;;16.10;52.00;;;;;;5290870;28;20516;-35
2022/04/02 04:37:12;;;;;;;2.47;1.17;;;16.10;52.10;;;;;;5290308;28;20043;-41
2022/04/02 04:39:43;;;;;;;2.70;1.13;;;16.10;52.00;;;;;;5272309;28;20046;-30
2022/04/02 04:42:14;;;;;;;1.73;1.10;;;16.10;52.10;;;;;;5290547;28;20043;-41
2022/04/02 04:44:45;;;;;;;2.10;1.20;;;16.10;52.10;;;;;;5290448;28;20047;-37
2022/04/02 04:47:16;;;;;;;1.93;1.10;;;16.10;52.10;;;;;;5290362;28;20485;-33
2022/04/02 04:49:47;;;;;;;1.70;1.00;;;16.10;52.20;;;;;;5290275;28;20043;-30
2022/04/02 04:52:18;;;;;;;2.00;1.23;;;16.10;52.80;;;;;;5290487;28;20067;-31
2022/04/02 04:54:49;;;;;;;2.20;1.20;;;16.10;52.20;;;;;;5290436;28;20070;-30
2022/04/02 04:57:20;;;;;;;2.93;1.40;;;16.10;52.20;;;;;;5290404;28;20489;-35
2022/04/02 04:59:51;;;;;;;1.37;0.80;;;16.10;52.40;;;;;;5272305;28;20050;-37
2022/04/02 05:02:22;;;;;;;2.03;1.23;;;16.10;52.30;;;;;;5290255;28;20040;-32
2022/04/02 05:04:53;;;;;;;2.27;1.20;;;16.20;52.60;;;;;;5290287;28;20499;-32
2022/04/02 05:07:25;;;;;;;1.60;0.93;;;16.20;52.40;;;;;;5290795;28;20040;-35
2022/04/02 05:09:56;;;;;;;1.40;0.95;;;16.20;52.50;;;;;;5271572;28;20367;-42
2022/04/02 05:12:28;;;;;;;1.30;1.00;;;16.20;52.40;;;;;;5269220;28;20040;-34
2022/04/02 05:14:58;;;;;;;1.40;0.90;;;16.30;58.80;;;;;;5269227;28;20059;-36
2022/04/02 05:17:31;;;;;;;1.47;1.00;;;16.40;62.70;;;;;;5268657;28;20052;-33
2022/04/02 05:20:03;;;;;;;1.42;1.00;;;16.60;64.00;;;;;;5268551;28;20051;-40
2022/04/02 05:22:34;;;;;;;1.73;1.00;;;16.60;64.60;;;;;;5269136;28;20040;-41
2022/04/02 05:25:06;;;;;;;2.17;1.20;;;16.70;63.70;;;;;;5268958;28;20040;-33
2022/04/02 05:27:37;;;;;;;1.77;1.33;;;16.80;62.60;;;;;;5270991;28;20497;-32
2022/04/02 05:30:08;;;;;;;1.58;1.00;;;16.90;63.80;;;;;;5272138;28;20050;-37
2022/04/02 05:32:40;;;;;;;1.67;0.95;;;16.90;64.20;;;;;;5272439;28;20051;-35
2022/04/02 05:35:11;;;;;;;2.70;1.27;;;16.90;62.10;;;;;;5272955;28;20464;-35
2022/04/02 05:37:44;;;;;;;1.75;1.20;;;16.90;61.40;;;;;;5272715;28;20044;-31
2022/04/02 05:40:15;;;;;;;1.52;1.00;;;17.00;62.80;;;;;;5272654;28;20489;-39
2022/04/02 05:42:46;;;;;;;2.00;1.20;;;16.90;56.50;;;;;;5272300;28;20048;-42
2022/04/02 05:45:17;;;;;;;2.88;1.17;;;16.90;58.90;;;;;;5274089;28;20059;-32
2022/04/02 05:47:49;;;;;;;1.85;1.27;;;16.90;54.20;;;;;;5275444;28;20123;-31
2022/04/02 05:50:23;;;;;;;2.47;1.45;;;17.00;55.70;;;;;;5292076;28;20122;-37
2022/04/02 05:52:55;;;;;;;1.95;1.10;;;16.90;54.50;;;;;;5275734;28;20048;-34
2022/04/02 05:55:26;;;;;;;1.48;1.00;;;16.80;56.00;;;;;;5293487;28;20077;-30
2022/04/02 05:57:57;;;;;;;2.85;1.63;;;16.80;56.10;;;;;;5293755;28;20043;-36
2022/04/02 06:00:28;;;;;;;2.90;1.50;;;16.80;59.50;;;;;;5293760;28;20047;-34
2022/04/02 06:03:00;;;;;;;2.42;1.33;;;16.80;59.70;;;;;;5293881;28;20055;-38
2022/04/02 06:05:31;;;;;;;2.37;1.23;;;16.70;61.80;;;;;;5293485;28;20047;-31
2022/04/02 06:08:03;;;;;;;2.35;1.30;;;16.70;56.10;;;;;;5275471;28;20150;-38
2022/04/02 06:10:33;;;;;;;2.15;1.38;;;16.70;53.20;;;;;;5293287;28;20135;-39
2022/04/02 06:13:05;;;;;;;1.77;1.23;;;16.70;52.90;;;;;;5257794;28;20051;-34
2022/04/02 06:15:37;;;;;;;2.03;1.33;;;16.70;52.80;;;;;;5293309;28;20051;-32
2022/04/02 06:18:09;;;;;;;2.10;1.30;;;16.70;52.90;;;;;;5293320;28;20047;-34
2022/04/02 06:20:40;;;;;;;2.20;1.23;;;16.60;53.10;;;;;;5293379;28;20063;-31
2022/04/02 06:23:11;;;;;;;4.73;1.50;;;16.50;54.20;;;;;;5293273;28;20051;-33
2022/04/02 06:25:42;;;;;;;3.27;1.30;;;16.50;59.30;;;;;;5293016;28;20044;-40
2022/04/02 06:28:13;;;;;;;1.90;1.23;;;16.60;63.10;;;;;;5293629;28;20101;-31
2022/04/02 06:30:44;;;;;;;2.10;1.10;;;16.60;63.50;;;;;;5293047;28;20051;-32
2022/04/02 06:33:15;;;;;;;2.80;1.20;;;16.60;60.70;;;;;;5274522;28;20047;-38
2022/04/02 06:35:46;;;;;;;1.80;1.30;;;16.60;61.80;;;;;;5292962;28;20127;-37
2022/04/02 06:38:19;;;;;;;;;;;16.60;60.90;;;;;;5292940;28;20447;-39
2022/04/02 06:40:51;;;;;;;1.75;1.23;;;16.60;67.70;;;;;;5262124;28;19925;-33
2022/04/02 06:43:23;;;;;;;2.72;1.33;;;16.60;70.90;;;;;;5251908;28;20130;-38
2022/04/02 06:45:55;;;;;;;3.70;1.27;;;16.60;62.90;;;;;;5232955;28;20495;-32
2022/04/02 06:48:26;;;;;;;2.50;1.40;;;16.60;59.90;;;;;;5250672;28;20047;-38
2022/04/02 06:50:58;;;;;;;2.63;1.17;;;16.60;60.50;;;;;;5250489;28;20435;-37
2022/04/02 06:53:29;;;;;;;1.65;1.10;;;16.60;60.70;;;;;;5250370;28;20048;-32
2022/04/02 06:56:00;;;;;;;2.47;1.30;;;16.60;54.80;;;;;;5232798;28;20052;-33
2022/04/02 06:58:34;;;;;;;2.03;1.20;;;16.60;55.70;;;;;;5250781;28;20115;-31
2022/04/02 07:01:05;;;;;;;2.13;1.37;;;16.50;59.00;;;;;;5232634;28;20049;-30
2022/04/02 07:03:37;;;;;;;2.77;1.50;;;16.50;57.20;;;;;;5250664;28;20051;-31
2022/04/02 07:06:08;;;;;;;2.00;1.30;;;16.50;57.40;;;;;;5250089;28;20049;-34
2022/04/02 07:08:39;;;;;;;2.25;1.42;;;16.50;54.70;;;;;;5250341;28;20040;-31
2022/04/02 07:11:10;;;;;;;2.42;1.40;;;16.50;54.30;;;;;;5216364;28;20075;-32
2022/04/02 07:13:41;;;;;;;3.13;2.17;;;16.50;54.00;;;;;;5249635;28;20055;-37
2022/04/02 07:16:12;;;;;;;2.17;1.47;;;16.40;55.10;;;;;;5232099;28;20041;-36
2022/04/02 07:18:45;;;;;;;3.23;1.67;;;15.90;55.40;;;;;;5231999;28;20060;-39
2022/04/02 07:21:16;;;;;;;2.30;1.50;;;15.50;55.60;;;;;;5249861;28;20095;-39
2022/04/02 07:23:47;;;;;;;;;;;15.10;56.30;;;;;;5232256;28;20040;-35
2022/04/02 07:26:19;;;;;;;;;;;14.90;56.50;;;;;;5250324;28;20364;-36
2022/04/02 07:28:50;;;;;;;;;;;14.90;56.60;;;;;;5250373;28;19970;-35
2022/04/02 07:31:21;;;;;;;;;;;14.80;56.60;;;;;;5250269;28;20262;-38
2022/04/02 07:33:53;;;;;;;;;;;14.80;56.40;;;;;;5250343;28;19921;-35
2022/04/02 07:36:44;;;;;;;;;;;14.80;56.30;;;;;;5250149;28;19927;-35
2022/04/02 07:39:15;;;;;;;;;;;14.90;56.30;;;;;;5232872;28;19974;-35
2022/04/02 07:41:50;;;;;;;;;;;14.90;56.20;;;;;;5250017;28;19920;-37
2022/04/02 07:44:24;;;;;;;;;;;14.80;56.10;;;;;;5249496;28;19920;-35
2022/04/02 07:46:56;;;;;;;;;;;14.80;56.30;;;;;;5249977;28;19927;-35
2022/04/02 07:49:28;;;;;;;;;;;14.80;56.30;;;;;;5249208;28;19955;-37
2022/04/02 07:51:59;;;;;;;;;;;14.70;57.00;;;;;;5198794;28;19970;-30
2022/04/02 07:54:33;;;;;;;;;;;14.60;57.70;;;;;;5249704;28;19920;-40
2022/04/02 07:57:06;;;;;;;;;;;14.50;56.60;;;;;;5232070;28;19921;-34
2022/04/02 07:59:39;;;;;;;;;;;14.50;56.90;;;;;;5231874;28;19921;-30
2022/04/02 08:05:04;;;;;;;;;;;14.40;56.90;;;;;;5249569;28;19920;-35
2022/04/02 08:07:35;;;;;;;;;;;14.30;56.70;;;;;;5248383;28;20335;-40
2022/04/02 08:10:08;;;;;;;;;;;14.30;57.00;;;;;;5232234;28;19942;-41
2022/04/02 08:12:39;;;;;;;;;;;14.30;56.90;;;;;;5249301;28;19921;-43
2022/04/02 08:15:14;;;;;;;;;;;14.20;56.80;;;;;;5231816;28;19920;-35
2022/04/02 08:17:45;;;;;;;;;;;14.20;56.90;;;;;;5231750;28;19973;-33
2022/04/02 08:20:17;;;;;;;;;;;14.20;56.90;;;;;;5249249;28;19948;-35
2022/04/02 08:22:48;;;;;;;;;;;14.10;56.50;;;;;;5249047;28;20389;-39
2022/04/02 08:25:20;;;;;;;;;;;14.10;56.30;;;;;;5248716;28;19970;-37
2022/04/02 08:27:54;;;;;;;;;;;14.10;56.90;;;;;;5215125;28;19931;-38
2022/04/02 08:30:33;;;;;;;;;;;14.00;56.50;;;;;;5249224;28;19924;-36
2022/04/02 08:33:22;;;;;;;;;;;14.00;56.40;;;;;;5249252;28;19965;-36
2022/04/02 08:36:11;;;;;;;;;;;14.00;56.30;;;;;;5248971;28;19928;-36
2022/04/02 08:38:47;;;;;;;;;;;13.90;55.80;;;;;;5249034;28;20007;-41
2022/04/02 08:41:30;;;;;;;;;;;13.90;55.90;;;;;;5249015;28;19921;-39
2022/04/02 08:44:04;;;;;;;;;;;13.90;55.10;;;;;;5248872;28;20412;-30
2022/04/02 08:46:47;;;;;;;;;;;13.80;55.50;;;;;;5249060;28;20274;-36
2022/04/02 08:49:24;;;;;;;;;;;13.80;55.50;;;;;;5249035;28;20031;-34
2022/04/02 08:52:13;;;;;;;;;;;13.80;55.10;;;;;;5249016;28;20492;-38
2022/04/02 08:54:44;;;;;;;;;;;13.80;54.80;;;;;;5249055;28;20014;-39
2022/04/02 08:57:21;;;;;;;;;;;13.80;54.50;;;;;;5197234;28;19920;-41
2022/04/02 09:00:04;;;;;;;;;;;13.70;54.60;;;;;;5248833;28;19927;-35
2022/04/02 09:02:47;;;;;;;;;;;13.70;54.60;;;;;;5253587;28;20289;-31
2022/04/02 09:05:57;;;;;;;2.77;1.70;;;13.70;54.70;;;;;;5252488;28;19921;-33
2022/04/02 09:09:08;;;;;;;1.97;1.43;;;13.70;54.50;;;;;;5209245;28;20415;-28
2022/04/02 09:11:53;;;;;;;2.20;1.60;;;13.70;54.80;;;;;;5208912;28;20128;-35
2022/04/02 09:14:37;;;;;;;2.67;1.60;;;13.70;54.50;;;;;;5208889;28;20050;-34
2022/04/02 09:17:42;;;;;;;2.23;1.50;;;13.70;54.20;;;;;;5192911;28;20049;-33
2022/04/02 09:20:30;;;;;;;2.23;1.50;;;13.60;54.10;;;;;;5208692;28;20056;-43
2022/04/02 09:23:12;;;;;;;1.87;1.63;;;13.60;54.30;;;;;;5208801;28;20045;-35
2022/04/02 09:26:09;;;;;;;2.10;1.27;;;13.60;54.10;;;;;;5192073;28;20066;-38
2022/04/02 09:28:51;;;;;;;2.57;1.70;;;13.60;54.00;;;;;;5195137;28;20053;-39
2022/04/02 09:31:46;;;;;;;2.10;1.60;;;13.60;54.00;;;;;;5208604;28;20049;-36
2022/04/02 09:34:41;;;;;;;2.67;1.90;;;13.60;53.60;;;;;;5193334;28;20060;-35
2022/04/02 09:37:46;;;;;;;3.70;1.90;;;13.60;54.00;;;;;;5208382;28;20045;-32
2022/04/02 09:40:18;;;;;;;2.50;1.57;;;13.50;53.50;;;;;;5208371;28;20045;-32
2022/04/02 09:42:52;;;;;;;2.93;1.80;;;13.50;53.60;;;;;;5208548;28;20068;-35
2022/04/02 09:45:23;;;;;;;3.23;1.80;;;13.50;53.30;;;;;;5224781;28;20044;-40
2022/04/02 09:48:08;;;;;;;2.67;1.50;;;13.50;53.30;;;;;;5233953;28;20053;-35
2022/04/02 09:50:39;;;;;;;2.07;1.47;;;13.50;53.50;;;;;;5235212;28;20136;-35
2022/04/02 09:53:10;;;;;;;4.00;2.47;;;13.50;52.60;;;;;;5233936;28;20514;-37
2022/04/02 09:55:47;;;;;;;3.77;3.30;;;13.50;52.30;;;;;;5251742;28;20056;-41
2022/04/02 09:58:26;;;;;;;2.17;1.37;;;13.50;52.60;;;;;;5251544;28;20048;-35
2022/04/02 10:01:05;;;;;;;1.93;1.13;;;13.40;52.40;;;;;;5218260;28;20055;-36
2022/04/02 10:03:51;;;;;;;2.63;1.60;;;13.40;52.10;;;;;;5251969;28;20089;-41
2022/04/02 10:06:25;;;;;;;3.27;2.67;;;13.40;52.10;;;;;;5251563;28;20048;-40
2022/04/02 10:08:59;;;;;;;1.70;1.47;;;13.40;52.30;;;;;;5251179;28;20117;-33
2022/04/02 10:11:31;;;;;;;1.97;1.57;;;13.40;52.90;;;;;;5251887;28;20075;-31
2022/04/02 10:14:04;;;;;;;2.77;1.97;;;13.40;52.70;;;;;;5250485;28;20056;-38
2022/04/02 10:16:35;;;;;;;2.00;1.20;;;13.40;52.50;;;;;;5251425;28;20049;-33
2022/04/02 10:19:09;;;;;;;2.23;1.47;;;13.40;53.10;;;;;;5251296;28;20514;-32
2022/04/02 10:21:39;;;;;;;2.50;1.25;;;13.40;52.40;;;;;;5250256;28;20051;-42
2022/04/02 10:24:24;;;;;;;1.50;1.27;;;13.40;52.50;;;;;;5250892;28;20104;-33
2022/04/02 10:26:56;;;;;;;3.07;1.50;;;13.40;52.60;;;;;;5233703;28;20443;-39
2022/04/02 10:29:51;;;;;;;2.57;1.10;;;13.40;52.50;;;;;;5251110;28;20041;-38
2022/04/02 10:32:53;;;;;;;2.33;1.80;;;13.40;52.70;;;;;;5250835;28;20045;-37
2022/04/02 10:35:25;;;;;;;2.30;1.50;;;13.40;52.40;;;;;;5250859;28;20044;-36
2022/04/02 10:38:25;;;;;;;1.63;1.30;;;13.40;52.40;;;;;;5250850;28;20055;-32
2022/04/02 10:40:56;;;;;;;1.53;1.30;;;13.40;52.40;;;;;;5234222;28;20123;-33
2022/04/02 10:43:28;;;;;;;1.30;1.10;;;13.40;52.20;;;;;;5232913;28;20157;-33
2022/04/02 10:46:00;;;;;;;1.90;1.20;;;13.40;51.80;;;;;;5250679;28;20072;-36
2022/04/02 10:48:52;;;;;;;3.63;2.40;;;13.40;51.80;;;;;;5216355;28;20048;-34
2022/04/02 10:51:35;;;;;;;2.17;1.50;;;13.40;52.20;;;;;;5207535;28;20049;-30
2022/04/02 10:54:08;;;;;;;1.35;1.10;;;13.30;52.10;;;;;;5207355;28;20061;-31
2022/04/02 10:56:46;;;;;;;1.25;1.13;;;13.30;51.60;;;;;;5206738;28;20057;-37
2022/04/02 10:59:18;;;;;;;1.37;1.00;;;13.30;51.80;;;;;;5207117;28;20045;-37
2022/04/02 11:01:53;;;;;;;2.57;1.30;;;13.30;51.30;;;;;;5206908;28;20053;-35
2022/04/02 11:04:54;;;;;;;1.80;1.07;;;13.30;51.10;;;;;;5206732;28;20056;-32
2022/04/02 11:07:27;;;;;;;1.53;1.10;;;13.30;51.60;;;;;;5206759;28;20049;-35
2022/04/02 11:10:01;;;;;;;1.27;1.02;;;13.30;51.40;;;;;;5206731;28;20080;-33
2022/04/02 11:12:37;;;;;;;1.50;1.10;;;13.30;51.60;;;;;;5207017;28;20392;-32
2022/04/02 11:15:12;;;;;;;2.13;1.57;;;13.30;51.90;;;;;;5206665;28;20156;-37
2022/04/02 11:17:47;;;;;;;1.97;1.40;;;13.30;51.90;;;;;;5190136;28;20062;-36
2022/04/02 11:20:23;;;;;;;2.27;1.90;;;13.30;51.70;;;;;;5206461;28;20052;-35
2022/04/02 11:22:55;;;;;;;1.40;1.30;;;13.30;51.80;;;;;;5206376;28;20049;-34
2022/04/02 11:25:29;;;;;;;1.50;1.23;;;13.30;52.00;;;;;;5205180;28;20049;-35
2022/04/02 11:28:11;;;;;;;1.67;1.20;;;13.30;51.50;;;;;;5220837;28;20053;-33
2022/04/02 11:30:45;;;;;;;1.83;1.30;;;13.30;51.40;;;;;;5250031;28;20044;-35
2022/04/02 11:33:21;;;;;;;2.43;1.67;;;13.30;52.10;;;;;;5249698;28;20048;-37
2022/04/02 11:35:59;;;;;;;2.10;1.50;;;13.30;52.20;;;;;;5249527;28;20087;-35
2022/04/02 11:38:39;;;;;;;2.40;1.40;;;13.30;51.70;;;;;;5249634;28;20052;-37
2022/04/02 11:41:16;;;;;;;1.77;1.23;;;13.30;51.80;;;;;;5249334;28;20153;-36
2022/04/02 11:43:51;;;;;;;1.83;1.23;;;13.20;51.70;;;;;;5231699;28;20068;-32
2022/04/02 11:46:22;;;;;;;2.27;1.57;;;13.20;51.70;;;;;;5231966;28;20122;-32
2022/04/02 11:48:54;;;;;;;2.80;1.87;;;13.30;51.60;;;;;;5249321;28;20048;-33
2022/04/02 11:51:27;;;;;;;6.00;3.47;;;13.20;51.20;;;;;;5249430;28;20044;-42
2022/04/02 11:54:08;;;;;;;;;;;13.20;51.70;;;;;;5249782;28;20059;-37
2022/04/02 11:56:47;;;;;;;6.57;3.87;;;13.20;51.20;;;;;;5249401;28;19920;-34
2022/04/02 11:59:18;;;;;;;3.80;2.53;;;13.20;51.70;;;;;;5249072;28;20049;-32
2022/04/02 12:01:50;;;;;;;2.50;1.87;;;13.20;51.10;;;;;;5249316;28;20394;-33
2022/04/02 12:04:25;;;;;;;2.10;1.70;;;13.20;51.50;;;;;;5249198;28;20045;-38
2022/04/02 12:07:06;;;;;;;4.23;1.83;;;13.20;51.60;;;;;;5231542;28;20055;-34
2022/04/02 12:09:49;;;;;;;1.60;1.20;;;13.20;51.30;;;;;;5249640;28;20402;-33
2022/04/02 12:12:24;;;;;;;1.85;1.50;;;13.20;52.10;;;;;;5214902;28;20064;-33
2022/04/02 12:14:58;;;;;;;3.13;1.50;;;13.20;53.00;;;;;;5249538;28;20052;-33
2022/04/02 12:17:31;;;;;;;2.17;1.67;;;13.20;53.50;;;;;;5231672;28;20420;-37
2022/04/02 12:20:03;;;;;;;1.97;1.30;;;13.20;52.80;;;;;;5248812;28;20075;-33
2022/04/02 12:22:37;;;;;;;2.10;1.13;;;13.20;53.20;;;;;;5248926;28;20173;-35
2022/04/02 12:25:13;;;;;;;1.77;1.23;;;13.20;52.40;;;;;;5249099;28;20041;-37
2022/04/02 12:27:49;;;;;;;1.53;1.33;;;13.20;52.50;;;;;;5249056;28;20474;-35
2022/04/02 12:30:21;;;;;;;1.50;1.30;;;13.20;53.70;;;;;;5248844;28;20101;-39
2022/04/02 12:32:52;;;;;;;1.93;1.30;;;13.20;53.80;;;;;;5248484;28;20044;-34
2022/04/02 12:35:25;;;;;;;2.53;1.60;;;13.20;54.40;;;;;;5213968;28;20047;-37
2022/04/02 12:38:02;;;;;;;2.28;1.60;;;13.20;54.50;;;;;;5248820;28;20040;-40
2022/04/02 12:40:39;;;;;;;1.97;1.40;;;13.20;55.10;;;;;;5248896;28;20094;-36
2022/04/02 12:43:10;;;;;;;1.63;1.17;;;13.20;55.20;;;;;;5248582;28;20040;-40
2022/04/02 12:45:41;;;;;;;1.80;1.20;;;13.20;55.40;;;;;;5248797;28;20063;-37
2022/04/02 12:48:20;;;;;;;2.87;1.90;;;13.20;55.10;;;;;;5231347;28;20048;-36
2022/04/02 12:50:58;;;;;;;1.50;1.40;;;13.20;55.30;;;;;;5248732;28;20051;-35
2022/04/02 12:53:33;;;;;;;2.43;1.47;;;13.20;55.50;;;;;;5230521;28;20044;-32
2022/04/02 12:56:05;;;;;;;2.33;1.60;;;13.20;55.80;;;;;;5231464;28;20047;-33
2022/04/02 12:58:39;;;;;;;2.80;1.73;;;13.20;55.80;;;;;;5230586;28;20048;-38
2022/04/02 13:01:21;;;;;;;2.80;1.93;;;13.20;56.20;;;;;;5248525;28;20509;-35
2022/04/02 13:04:03;;;;;;;2.17;1.53;;;13.20;56.00;;;;;;5231695;28;20477;-35
2022/04/02 13:06:45;;;;;;;2.00;1.47;;;13.20;56.30;;;;;;5248612;28;20445;-34
2022/04/02 13:09:19;;;;;;;2.10;1.43;;;13.20;56.50;;;;;;5232335;28;20511;-36
2022/04/02 13:11:56;;;;;;;2.10;1.50;;;13.20;55.50;;;;;;5231260;28;20045;-32
2022/04/02 13:14:33;;;;;;;3.10;2.00;;;13.20;56.30;;;;;;5230519;28;20049;-37
2022/04/02 13:17:09;;;;;;;2.60;2.40;;;13.20;56.20;;;;;;5248123;28;20048;-38
2022/04/02 13:22:46;;;;;;;2.63;1.90;;;13.20;56.50;;;;;;5248016;28;20052;-33
2022/04/02 13:25:24;;;;;;;1.53;1.40;;;13.20;57.00;;;;;;5248469;28;20049;-36
2022/04/02 13:28:25;;;;;;;2.13;1.93;;;13.20;56.20;;;;;;5248088;28;20546;-34
2022/04/02 13:30:59;;;;;;;2.87;2.10;;;13.20;56.50;;;;;;5247988;28;20083;-31
2022/04/02 13:33:50;;;;;;;4.10;2.80;;;13.10;56.40;;;;;;5248643;28;20399;-35
2022/04/02 13:36:35;;;;;;;2.50;2.10;;;13.20;57.30;;;;;;5248003;28;20053;-40
2022/04/02 13:39:12;;;;;;;3.47;2.30;;;13.20;56.80;;;;;;5248471;28;20474;-35
2022/04/02 13:41:43;;;;;;;3.10;1.90;;;13.20;57.20;;;;;;5247926;28;20048;-39
2022/04/02 13:44:19;;;;;;;2.63;2.13;;;13.30;56.70;;;;;;5247585;28;20055;-40